Aérodrome :
LOGIN :

S'inscrire | Disclaimer

   EN    FR    IT 

 










Légende :    VFR   VFR Marginal   IFR   IFR Intensif   IFR Très Intensif
Visi : 
Plafond : 
>= 8 km
>= 3000ft
5 à 8 km
1000 à 3000 ft
1500m à 5 km
500 à 1000 ft
800 à 1500m
200 à 500 ft
< 800m
< 200 ft
Symboles :   Orages  Brouillard  Fortes neiges  Fortes précipitations  Vent > 20 kt
SIGMETs :   Divers  Orages  Givrage  Turbulence  Onde Orograph.  Cendres Volcan.






- Altitude de l'aérodrome : 24 ft
- Code IATA : IBZ


LEIB - Ibiza

DERNIER METAR :
  • 201300Z 31011KT 280V340 9999 FEW046 28/16 Q1016 NOSIG

METARs EXPIRÉS :
  • 201230Z 30011KT 260V350 9999 FEW042 28/16 Q1016 NOSIG
  • 201200Z 29011KT 260V330 9999 FEW042 28/16 Q1016 NOSIG
  • 201130Z 31009KT 270V350 9999 FEW042 28/16 Q1016 NOSIG
  • 201100Z 29009KT 240V330 9999 FEW040 27/16 Q1016 NOSIG
  • 201030Z 30009KT 260V330 9999 FEW030 27/16 Q1016 NOSIG

TAF TAF LEIB
Valide du 20 à 09h jusqu'au 21 à 09h UTC


200800Z 2009/2109 29012KT 9999 FEW030 TX28/2012Z TN20/2105Z
BECMG 2014/2016 23011KT
TEMPO 2016/2019 23004KT
BECMG 2101/2103 28008KT



MET'MAP, la Météo Aéronautique d'un coup d'oeil ! - Copyright ORBIFLY Décembre 2007 - Disclaimer

ORBIFLY MET'MAP TEAM :

Programmation & Développement : Alexandra Zaïnal
Sur une idée originale de : Baudouin d'Aumeries
Assistance à la programmation : Marc-Olivier Méhu
Soutien technique & logistique : Manuel Goepfert

Contact : metmap@orbifly.com




SOURCES & CREDITS :

   NOAA